createdAt,value
2024-04-16T00:06:10.362Z,22.0131
2024-04-16T00:16:30.308Z,22.0116
2024-04-16T00:26:50.999Z,22.0104
2024-04-16T00:36:59.008Z,22.0075
2024-04-16T00:47:07.421Z,21.9998
2024-04-16T00:57:28.826Z,21.9918
2024-04-16T01:07:49.774Z,21.9902
2024-04-16T01:18:11.095Z,21.9818
2024-04-16T01:28:18.677Z,21.9645
2024-04-16T01:38:28.050Z,21.9609
2024-04-16T01:48:36.206Z,21.9609
2024-04-16T01:58:45.437Z,21.9705
2024-04-16T02:08:53.474Z,21.9907
2024-04-16T02:19:14.952Z,22.0207
2024-04-16T02:29:37.723Z,22.0869
2024-04-16T02:39:45.334Z,22.1800
2024-04-16T02:50:06.525Z,22.3033
2024-04-16T03:00:16.392Z,22.4598
2024-04-16T03:10:24.712Z,22.6516
2024-04-16T03:20:45.885Z,22.9129
2024-04-16T03:30:54.992Z,23.2791
2024-04-16T03:41:16.577Z,23.7927
2024-04-16T03:51:38.415Z,24.4104
2024-04-16T04:01:46.395Z,24.9484
2024-04-16T04:12:07.759Z,25.3453
2024-04-16T04:22:16.148Z,25.6577
2024-04-16T04:32:39.344Z,25.9038
2024-04-16T04:42:47.629Z,26.1527
2024-04-16T04:52:55.196Z,26.6366
2024-04-16T05:03:05.361Z,27.8248
2024-04-16T05:13:13.597Z,28.8711
2024-04-16T05:23:22.315Z,29.0925
2024-04-16T05:33:34.778Z,29.0055
2024-04-16T05:43:43.271Z,28.8750
2024-04-16T05:53:51.988Z,28.7332
2024-04-16T06:04:00.214Z,28.5916
2024-04-16T06:14:08.322Z,28.4545
2024-04-16T06:24:17.054Z,28.3259
2024-04-16T06:34:25.625Z,28.2168
2024-04-16T06:44:34.675Z,28.1161
2024-04-16T06:54:43.473Z,28.0216
2024-04-16T07:05:04.782Z,27.9347
2024-04-16T07:15:12.756Z,27.8589
2024-04-16T07:25:34.386Z,27.7900
2024-04-16T07:35:57.811Z,27.7216
2024-04-16T07:46:06.118Z,27.6500
2024-04-16T07:56:26.766Z,27.5891
2024-04-16T08:06:35.310Z,27.5330
2024-04-16T08:16:56.431Z,27.4682
2024-04-16T08:27:16.641Z,27.4240
2024-04-16T08:37:37.064Z,27.3733
2024-04-16T08:47:57.267Z,27.3060
2024-04-16T08:58:05.731Z,27.2575
2024-04-16T09:08:26.099Z,27.2062
2024-04-16T09:18:47.731Z,27.1509
2024-04-16T09:28:55.487Z,27.1068
2024-04-16T09:39:17.421Z,27.0629
2024-04-16T09:49:45.212Z,27.0120
2024-04-16T09:59:49.839Z,26.9593
2024-04-16T10:10:09.780Z,26.9169
2024-04-16T10:20:30.382Z,26.8558
2024-04-16T10:30:51.652Z,26.8004
2024-04-16T10:41:12.351Z,26.7533
2024-04-16T10:51:31.002Z,26.7231
2024-04-16T11:01:51.312Z,26.6813
2024-04-16T11:12:09.559Z,26.6316
2024-04-16T11:22:28.571Z,26.5920
2024-04-16T11:32:47.238Z,26.5507
2024-04-16T11:43:06.394Z,26.4958
2024-04-16T11:53:16.730Z,26.4643
2024-04-16T12:03:35.583Z,26.4407
2024-04-16T12:13:54.437Z,26.4044
2024-04-16T12:24:13.515Z,26.3682
2024-04-16T12:34:32.504Z,26.3211
2024-04-16T12:44:50.852Z,26.2882
2024-04-16T12:55:10.095Z,26.2558
2024-04-16T13:05:28.716Z,26.2342
2024-04-16T13:15:47.204Z,26.2062
2024-04-16T13:26:05.566Z,26.1576
2024-04-16T13:36:23.818Z,26.1296
2024-04-16T13:46:43.313Z,26.1020
2024-04-16T13:57:01.879Z,26.0784
2024-04-16T14:07:20.021Z,26.0482
2024-04-16T14:17:39.256Z,26.0093
2024-04-16T14:27:58.030Z,25.9784
2024-04-16T14:38:16.594Z,25.9598
2024-04-16T14:48:35.833Z,25.9264
2024-04-16T14:58:44.173Z,25.8925
2024-04-16T15:08:52.867Z,25.8657
2024-04-16T15:19:13.086Z,25.8411
2024-04-16T15:29:31.562Z,25.8184
2024-04-16T15:39:42.729Z,25.7893
2024-04-16T15:50:01.181Z,25.7649
2024-04-16T16:00:19.657Z,25.7420
2024-04-16T16:10:40.102Z,25.7007
2024-04-16T16:21:01.420Z,25.6647
2024-04-16T16:31:23.110Z,25.6416
2024-04-16T16:41:43.763Z,25.6191
2024-04-16T16:52:04.402Z,25.5893
2024-04-16T17:02:13.082Z,25.5580
2024-04-16T17:12:22.992Z,25.5193
2024-04-16T17:22:30.730Z,25.5100
2024-04-16T17:32:39.399Z,25.4920
2024-04-16T17:42:49.008Z,25.4732
2024-04-16T17:52:57.982Z,25.4523
2024-04-16T18:03:12.088Z,25.4261
2024-04-16T18:13:20.597Z,25.4023
2024-04-16T18:23:29.063Z,25.3848
2024-04-16T18:33:40.554Z,25.4366
2024-04-16T18:43:49.430Z,25.8052
2024-04-16T18:54:11.966Z,27.6966
2024-04-16T19:04:21.170Z,30.0150
2024-04-16T19:14:33.570Z,31.0434
2024-04-16T19:24:47.463Z,31.3120
2024-04-16T19:34:56.893Z,30.9825
2024-04-16T19:45:06.082Z,30.5705
2024-04-16T19:55:16.132Z,30.2270
2024-04-16T20:05:25.859Z,29.9516
2024-04-16T20:15:35.672Z,29.7280
2024-04-16T20:25:45.221Z,29.5414
2024-04-16T20:35:56.042Z,29.3850
2024-04-16T20:46:05.402Z,29.2466
2024-04-16T20:56:14.748Z,29.1145
2024-04-16T21:06:24.144Z,29.0080
2024-04-16T21:16:33.435Z,28.9098
2024-04-16T21:26:42.446Z,28.8175
2024-04-16T21:36:51.807Z,28.7420
2024-04-16T21:47:01.405Z,28.6575
2024-04-16T21:57:11.046Z,28.5827
2024-04-16T22:07:20.430Z,28.5068
2024-04-16T22:17:29.882Z,28.4441
2024-04-16T22:27:40.632Z,28.3809
2024-04-16T22:37:50.359Z,28.3091
2024-04-16T22:48:00.003Z,28.2527
2024-04-16T22:58:09.835Z,28.1977
2024-04-16T23:08:19.041Z,28.1432
2024-04-16T23:18:28.434Z,28.0952
2024-04-16T23:28:37.695Z,28.0527
2024-04-16T23:38:46.776Z,27.9968
2024-04-16T23:48:56.453Z,27.9505
2024-04-16T23:59:05.522Z,27.9066
